createdAt,value
2023-03-28T00:02:04.724Z,-1.37
2023-03-28T00:06:57.315Z,-0.58
2023-03-28T00:11:49.676Z,1.41
2023-03-28T00:16:45.895Z,-0.93
2023-03-28T00:21:42.284Z,-0.83
2023-03-28T00:26:36.496Z,-1.70
2023-03-28T00:31:29.872Z,-2.91
2023-03-28T00:36:27.214Z,1.13
2023-03-28T00:41:24.306Z,-3.09
2023-03-28T00:46:33.981Z,-1.57
2023-03-28T00:51:31.152Z,-0.13
2023-03-28T00:56:25.592Z,-0.08
2023-03-28T01:01:20.179Z,0.10
2023-03-28T01:06:15.462Z,-1.43
2023-03-28T01:11:11.505Z,-0.12
2023-03-28T01:16:05.425Z,-1.32
2023-03-28T01:21:05.931Z,0.94
2023-03-28T01:26:33.305Z,0.93
2023-03-28T01:31:37.723Z,0.93
2023-03-28T01:37:05.887Z,0.75
2023-03-28T01:42:24.278Z,0.30
2023-03-28T01:47:38.074Z,-1.28
2023-03-28T01:52:54.638Z,0.57
2023-03-28T01:57:53.104Z,0.49
2023-03-28T02:03:06.191Z,-1.36
2023-03-28T02:08:06.119Z,-0.88
2023-03-28T02:13:30.967Z,-1.11
2023-03-28T02:18:39.157Z,-1.14
2023-03-28T02:23:52.761Z,-1.33
2023-03-28T02:29:18.205Z,-0.50
2023-03-28T02:34:23.115Z,-1.07
2023-03-28T02:40:07.336Z,0.08
2023-03-28T02:45:23.868Z,0.31
2023-03-28T02:50:25.987Z,0.28
2023-03-28T02:55:50.339Z,-2.70
2023-03-28T03:01:03.741Z,-0.77
2023-03-28T03:05:58.542Z,-1.12
2023-03-28T03:10:50.606Z,-0.34
2023-03-28T03:15:44.265Z,-2.36
2023-03-28T03:20:51.238Z,-2.74
2023-03-28T03:25:45.518Z,-1.45
2023-03-28T03:30:43.563Z,0.15
2023-03-28T03:35:36.004Z,-0.38
2023-03-28T03:40:31.339Z,0.08
2023-03-28T03:45:25.004Z,0.13
2023-03-28T03:50:17.379Z,0.10
2023-03-28T03:55:10.208Z,-2.18
2023-03-28T04:00:14.517Z,-3.08
2023-03-28T04:05:12.300Z,-2.22
2023-03-28T04:10:17.746Z,-1.84
2023-03-28T04:15:10.925Z,0.19
2023-03-28T04:20:24.080Z,0.18
2023-03-28T04:25:34.460Z,-2.63
2023-03-28T04:30:42.653Z,-3.39
2023-03-28T04:36:03.003Z,-0.78
2023-03-28T04:40:58.391Z,-0.41
2023-03-28T04:46:11.634Z,-3.38
2023-03-28T04:51:08.116Z,-1.10
2023-03-28T04:56:03.633Z,-0.29
2023-03-28T08:43:53.436Z,19.48
2023-03-28T08:48:47.609Z,20.21
2023-03-28T08:53:43.970Z,19.62
2023-03-28T08:58:58.628Z,17.55
2023-03-28T09:03:50.644Z,15.33
2023-03-28T09:08:53.106Z,16.38
2023-03-28T09:13:54.232Z,14.79
2023-03-28T09:19:15.523Z,14.21
2023-03-28T09:24:29.831Z,14.05
2023-03-28T09:29:39.445Z,13.37
2023-03-28T09:34:39.339Z,15.40
2023-03-28T09:39:39.237Z,14.81
2023-03-28T09:44:54.284Z,15.31
2023-03-28T09:50:12.738Z,14.31
2023-03-28T09:55:19.234Z,14.29
2023-03-28T10:00:21.724Z,13.18
2023-03-28T10:05:33.950Z,14.74
2023-03-28T10:11:00.558Z,11.58
2023-03-28T10:15:56.898Z,13.30
2023-03-28T10:21:21.011Z,12.62
2023-03-28T10:26:24.725Z,12.44
2023-03-28T10:31:29.515Z,13.58
2023-03-28T10:36:41.547Z,11.87
2023-03-28T10:41:35.190Z,12.38
2023-03-28T10:46:41.580Z,12.72
2023-03-28T10:51:43.421Z,13.16
2023-03-28T10:56:41.569Z,10.65
2023-03-28T11:01:58.649Z,12.91
2023-03-28T11:07:13.015Z,12.22
2023-03-28T11:12:54.923Z,12.47
2023-03-28T11:18:18.805Z,12.48
2023-03-28T11:23:31.322Z,12.63
2023-03-28T11:29:42.086Z,11.72
2023-03-28T11:34:46.217Z,10.34
2023-03-28T11:39:45.688Z,10.50
2023-03-28T11:45:08.169Z,9.25
2023-03-28T11:50:09.375Z,12.55
2023-03-28T11:55:24.242Z,10.78
2023-03-28T12:00:34.603Z,13.44
2023-03-28T12:05:42.059Z,14.17
2023-03-28T12:10:38.184Z,13.41
2023-03-28T12:15:49.588Z,11.30
2023-03-28T12:21:03.394Z,12.49
2023-03-28T12:26:48.936Z,13.26
2023-03-28T12:31:48.438Z,9.66
2023-03-28T12:36:55.272Z,12.35
2023-03-28T12:41:48.505Z,10.49
2023-03-28T12:46:51.583Z,11.48
2023-03-28T12:51:51.611Z,11.05
2023-03-28T12:56:46.525Z,12.58
2023-03-28T13:01:47.086Z,12.57
2023-03-28T13:07:19.967Z,10.73
2023-03-28T13:12:30.438Z,9.92
2023-03-28T13:17:24.446Z,11.61
2023-03-28T13:22:42.279Z,12.57
2023-03-28T13:27:34.774Z,12.96
2023-03-28T13:32:26.828Z,12.29
2023-03-28T13:37:23.094Z,13.16
2023-03-28T13:42:31.446Z,13.10
2023-03-28T13:47:32.776Z,13.56
2023-03-28T13:52:25.177Z,11.60
2023-03-28T13:57:18.869Z,11.91
2023-03-28T14:02:20.405Z,11.85
2023-03-28T14:07:13.215Z,12.81
2023-03-28T14:12:08.462Z,13.24
2023-03-28T14:17:03.741Z,12.30
2023-03-28T14:21:55.734Z,10.34
2023-03-28T14:26:47.748Z,11.04
2023-03-28T14:31:46.171Z,8.98
2023-03-28T14:36:58.420Z,11.10
2023-03-28T14:41:50.501Z,11.69
2023-03-28T14:46:43.397Z,11.08
2023-03-28T14:51:42.837Z,10.80
2023-03-28T14:56:34.787Z,10.62
2023-03-28T15:01:27.573Z,9.97
2023-03-28T15:06:22.317Z,8.97
2023-03-28T15:11:36.013Z,9.53
2023-03-28T15:16:29.277Z,9.42
2023-03-28T15:21:23.827Z,10.60
2023-03-28T15:26:25.655Z,9.82
2023-03-28T15:31:17.865Z,11.51
2023-03-28T15:36:16.820Z,11.39
2023-03-28T15:41:23.890Z,9.81
2023-03-28T15:46:15.666Z,10.07
2023-03-28T15:51:18.906Z,11.88
2023-03-28T15:56:22.042Z,11.50
2023-03-28T16:01:27.441Z,11.79
2023-03-28T16:06:43.746Z,11.29
2023-03-28T16:11:35.889Z,9.42
2023-03-28T16:16:53.351Z,9.00
2023-03-28T16:21:51.215Z,8.78
2023-03-28T16:26:43.148Z,8.39
2023-03-28T16:31:35.095Z,11.23
2023-03-28T16:36:27.104Z,10.38
2023-03-28T16:41:19.216Z,10.60
2023-03-28T16:46:12.327Z,10.04
2023-03-28T16:51:05.053Z,8.82
2023-03-28T16:55:56.839Z,9.66
2023-03-28T17:00:48.599Z,9.69
2023-03-28T17:05:40.322Z,8.34
2023-03-28T17:10:32.094Z,7.77
2023-03-28T17:15:24.032Z,9.44
2023-03-28T17:20:17.216Z,7.05
2023-03-28T17:25:09.373Z,8.10
2023-03-28T17:30:01.135Z,7.69
2023-03-28T17:34:53.172Z,7.51
2023-03-28T17:39:46.556Z,9.80
2023-03-28T17:44:38.276Z,9.62
2023-03-28T17:49:30.236Z,8.01
2023-03-28T17:54:22.517Z,6.21
2023-03-28T17:59:14.392Z,7.52
2023-03-28T18:04:06.411Z,7.81
2023-03-28T18:09:01.450Z,9.30
2023-03-28T18:13:57.132Z,9.34
2023-03-28T18:18:48.952Z,7.44
2023-03-28T18:23:41.429Z,7.91
2023-03-28T18:28:33.737Z,8.12
2023-03-28T18:33:26.177Z,8.06
2023-03-28T18:38:19.001Z,9.23
2023-03-28T18:43:11.387Z,7.26
2023-03-28T18:48:04.483Z,4.79
2023-03-28T18:52:57.506Z,8.50
2023-03-28T18:57:49.349Z,5.93
2023-03-28T19:02:41.526Z,6.13
2023-03-28T19:07:33.517Z,7.52
2023-03-28T19:12:26.212Z,7.30
2023-03-28T19:17:17.945Z,6.41
2023-03-28T19:22:10.920Z,5.82
2023-03-28T19:27:05.077Z,4.52
2023-03-28T19:31:58.058Z,5.92
2023-03-28T19:36:49.986Z,6.34
2023-03-28T19:41:42.302Z,6.16
2023-03-28T19:46:36.339Z,5.70
2023-03-28T19:51:29.357Z,4.88
2023-03-28T19:56:23.528Z,6.42
2023-03-28T20:01:16.191Z,4.50
2023-03-28T20:06:11.666Z,4.89
2023-03-28T20:11:04.410Z,5.99
2023-03-28T20:15:56.374Z,4.68
2023-03-28T20:20:55.654Z,5.82
2023-03-28T20:25:52.303Z,1.97
2023-03-28T20:30:44.768Z,4.56
2023-03-28T20:35:36.606Z,5.28
2023-03-28T20:40:28.586Z,2.30
2023-03-28T20:45:23.906Z,3.88
2023-03-28T20:50:17.171Z,6.34
2023-03-28T20:55:10.257Z,5.22
2023-03-28T21:00:07.070Z,3.36
2023-03-28T21:04:59.321Z,4.89
2023-03-28T21:09:51.215Z,2.81
2023-03-28T21:14:43.045Z,3.62
2023-03-28T21:19:35.302Z,4.71
2023-03-28T21:24:27.412Z,4.68
2023-03-28T21:29:19.561Z,4.28
2023-03-28T21:34:11.303Z,5.41
2023-03-28T21:39:03.475Z,4.30
2023-03-28T21:43:56.173Z,5.79
2023-03-28T21:48:48.763Z,3.34
2023-03-28T21:53:42.380Z,2.24
2023-03-28T21:58:34.947Z,3.90
2023-03-28T22:03:27.273Z,3.51
2023-03-28T22:08:20.153Z,3.88
2023-03-28T22:13:13.973Z,3.58
2023-03-28T22:18:09.196Z,3.20
2023-03-28T22:23:01.449Z,4.49
2023-03-28T22:27:53.366Z,4.82
2023-03-28T22:32:46.007Z,4.78
2023-03-28T22:37:39.057Z,4.86
2023-03-28T22:42:31.014Z,4.62
2023-03-28T22:47:30.534Z,4.01
2023-03-28T22:52:23.277Z,3.06
2023-03-28T22:57:15.270Z,1.87
2023-03-28T23:02:07.141Z,3.69
2023-03-28T23:06:59.511Z,3.94
2023-03-28T23:11:51.969Z,4.72
2023-03-28T23:16:44.813Z,2.91
2023-03-28T23:21:36.916Z,4.15
2023-03-28T23:26:28.708Z,3.26
2023-03-28T23:31:20.975Z,2.89
2023-03-28T23:36:21.004Z,3.32
2023-03-28T23:41:13.145Z,3.90
2023-03-28T23:46:05.283Z,4.53
2023-03-28T23:50:57.923Z,3.77
2023-03-28T23:55:49.690Z,3.08
